createdAt,value
2017-10-03T00:01:03.753Z,17.00
2017-10-03T00:03:32.020Z,17.20
2017-10-03T00:06:00.383Z,17.40
2017-10-03T00:08:28.630Z,17.40
2017-10-03T00:10:57.744Z,17.30
2017-10-03T00:13:26.061Z,17.20
2017-10-03T00:15:55.311Z,17.00
2017-10-03T00:18:24.337Z,17.40
2017-10-03T00:20:52.615Z,17.00
2017-10-03T00:23:20.988Z,17.30
2017-10-03T00:25:50.245Z,17.30
2017-10-03T00:28:19.316Z,17.30
2017-10-03T00:30:47.556Z,17.10
2017-10-03T00:33:15.832Z,17.10
2017-10-03T00:35:44.175Z,17.20
2017-10-03T00:38:13.450Z,17.30
2017-10-03T00:40:42.545Z,17.00
2017-10-03T00:43:11.617Z,17.30
2017-10-03T00:45:39.912Z,17.20
2017-10-03T00:48:09.774Z,17.20
2017-10-03T00:50:38.052Z,16.90
2017-10-03T00:53:06.319Z,17.00
2017-10-03T00:55:35.319Z,17.10
2017-10-03T00:58:03.763Z,16.90
2017-10-03T01:00:32.793Z,17.00
2017-10-03T01:03:01.666Z,16.90
2017-10-03T01:05:31.593Z,17.00
2017-10-03T01:07:59.893Z,16.90
2017-10-03T01:10:28.149Z,17.10
2017-10-03T01:12:56.524Z,17.10
2017-10-03T01:15:25.540Z,17.10
2017-10-03T01:17:54.852Z,17.00
2017-10-03T01:20:23.139Z,17.10
2017-10-03T01:22:52.317Z,16.80
2017-10-03T01:25:21.512Z,16.80
2017-10-03T01:27:49.844Z,16.80
2017-10-03T01:30:18.882Z,16.90
2017-10-03T01:32:47.115Z,17.00
2017-10-03T01:35:16.172Z,16.90
2017-10-03T01:37:56.285Z,17.00
2017-10-03T01:40:24.594Z,16.80
2017-10-03T01:42:52.846Z,16.60
2017-10-03T01:45:21.133Z,16.50
2017-10-03T01:47:49.426Z,16.30
2017-10-03T01:50:17.666Z,16.50
2017-10-03T01:52:45.939Z,16.40
2017-10-03T01:55:14.217Z,16.30
2017-10-03T01:57:43.232Z,16.30
2017-10-03T02:00:11.616Z,16.30
2017-10-03T02:02:40.688Z,16.30
2017-10-03T02:05:08.980Z,16.30
2017-10-03T02:07:37.248Z,16.40
2017-10-03T02:10:05.528Z,16.50
2017-10-03T02:12:33.793Z,16.40
2017-10-03T02:15:03.881Z,16.50
2017-10-03T02:17:32.174Z,16.60
2017-10-03T02:20:01.183Z,16.40
2017-10-03T02:22:30.403Z,16.80
2017-10-03T02:24:59.559Z,16.80
2017-10-03T02:27:29.622Z,16.80
2017-10-03T02:29:57.864Z,16.50
2017-10-03T02:32:27.017Z,16.90
2017-10-03T02:34:55.263Z,16.70
2017-10-03T02:37:23.627Z,16.90
2017-10-03T02:39:51.933Z,16.80
2017-10-03T02:42:20.166Z,16.80
2017-10-03T02:44:49.211Z,16.50
2017-10-03T02:47:17.522Z,16.50
2017-10-03T02:49:46.623Z,16.90
2017-10-03T02:52:16.710Z,16.70
2017-10-03T02:54:45.804Z,16.60
2017-10-03T02:57:14.063Z,16.70
2017-10-03T02:59:42.303Z,16.40
2017-10-03T03:02:10.592Z,16.40
2017-10-03T03:04:38.874Z,16.60
2017-10-03T03:07:07.140Z,16.40
2017-10-03T03:09:35.432Z,16.60
2017-10-03T03:12:03.667Z,16.80
2017-10-03T03:14:33.567Z,16.70
2017-10-03T03:17:01.849Z,16.70
2017-10-03T03:19:30.147Z,16.60
2017-10-03T03:21:59.165Z,16.80
2017-10-03T03:24:27.473Z,16.50
2017-10-03T03:26:55.740Z,16.60
2017-10-03T03:29:24.643Z,16.30
2017-10-03T03:31:52.925Z,16.50
2017-10-03T03:34:21.227Z,16.60
2017-10-03T03:36:49.651Z,16.60
2017-10-03T03:39:17.972Z,16.60
2017-10-03T03:41:46.360Z,16.60
2017-10-03T03:44:14.732Z,16.30
2017-10-03T03:46:43.120Z,16.20
2017-10-03T03:49:11.380Z,16.40
2017-10-03T03:51:40.435Z,16.40
2017-10-03T03:54:08.699Z,16.90
2017-10-03T03:56:37.033Z,16.40
2017-10-03T03:59:05.321Z,16.70
2017-10-03T04:01:35.384Z,16.40
2017-10-03T04:04:04.596Z,16.40
2017-10-03T04:06:32.924Z,16.30
2017-10-03T04:09:02.928Z,16.70
2017-10-03T04:11:32.019Z,16.60
2017-10-03T04:14:00.270Z,16.50
2017-10-03T04:16:28.544Z,16.50
2017-10-03T04:18:56.864Z,16.40
2017-10-03T04:21:25.162Z,16.20
2017-10-03T04:23:53.431Z,16.40
2017-10-03T04:26:22.812Z,16.50
2017-10-03T04:28:51.856Z,16.50
2017-10-03T04:31:20.206Z,16.40
2017-10-03T04:33:49.255Z,16.30
2017-10-03T04:36:18.056Z,16.30
2017-10-03T04:38:46.330Z,16.70
2017-10-03T04:41:14.612Z,16.50
2017-10-03T04:43:43.652Z,16.20
2017-10-03T04:46:11.944Z,16.50
2017-10-03T04:48:40.205Z,16.20
2017-10-03T04:51:08.497Z,16.50
2017-10-03T04:53:38.715Z,16.60
2017-10-03T04:56:06.982Z,16.50
2017-10-03T04:58:35.285Z,16.40
2017-10-03T05:01:03.544Z,16.30
2017-10-03T05:03:31.796Z,16.60
2017-10-03T05:06:00.091Z,16.20
2017-10-03T05:08:28.372Z,16.20
2017-10-03T05:10:56.651Z,16.20
2017-10-03T05:13:25.728Z,16.50
2017-10-03T05:15:54.022Z,16.10
2017-10-03T05:18:22.392Z,16.50
2017-10-03T05:20:50.807Z,16.30
2017-10-03T05:23:20.048Z,16.20
2017-10-03T05:25:54.352Z,16.20
2017-10-03T05:28:23.536Z,16.10
2017-10-03T05:30:51.829Z,16.50
2017-10-03T05:33:21.763Z,16.40
2017-10-03T05:35:51.127Z,16.20
2017-10-03T05:38:19.403Z,16.40
2017-10-03T05:40:47.834Z,16.30
2017-10-03T05:43:16.161Z,16.30
2017-10-03T05:45:44.435Z,16.20
2017-10-03T05:48:12.715Z,16.30
2017-10-03T05:50:40.980Z,16.10
2017-10-03T05:53:09.298Z,16.30
2017-10-03T05:55:37.624Z,16.10
2017-10-03T05:58:05.902Z,16.20
2017-10-03T06:00:34.303Z,16.30
2017-10-03T06:03:03.389Z,16.20
2017-10-03T06:05:32.435Z,16.10
2017-10-03T06:08:00.732Z,16.20
2017-10-03T06:10:29.026Z,16.10
2017-10-03T06:12:58.909Z,16.00
2017-10-03T06:15:28.897Z,16.20
2017-10-03T06:17:57.197Z,16.00
2017-10-03T06:20:26.481Z,15.90
2017-10-03T06:22:54.784Z,16.20
2017-10-03T06:25:23.838Z,15.90
2017-10-03T06:27:52.866Z,16.20
2017-10-03T06:30:22.049Z,15.80
2017-10-03T06:32:50.292Z,16.00
2017-10-03T06:35:18.564Z,16.10
2017-10-03T06:37:48.526Z,16.00
2017-10-03T06:40:16.782Z,15.70
2017-10-03T06:42:45.072Z,16.00
2017-10-03T06:45:13.394Z,16.00
2017-10-03T06:47:41.659Z,16.00
2017-10-03T06:50:09.973Z,16.00
2017-10-03T06:52:39.855Z,15.90
2017-10-03T06:55:08.211Z,16.10
2017-10-03T06:57:36.520Z,16.00
2017-10-03T07:00:04.857Z,16.10
2017-10-03T07:02:33.152Z,15.90
2017-10-03T07:05:01.434Z,16.20
2017-10-03T07:07:29.715Z,15.80
2017-10-03T07:09:57.989Z,15.80
2017-10-03T07:12:26.248Z,15.80
2017-10-03T07:14:55.598Z,16.00
2017-10-03T07:17:23.909Z,15.70
2017-10-03T07:19:52.192Z,16.10
2017-10-03T07:22:20.509Z,16.20
2017-10-03T07:24:48.855Z,15.90
2017-10-03T07:27:17.108Z,16.10
2017-10-03T07:29:45.407Z,16.20
2017-10-03T07:32:13.709Z,16.00
2017-10-03T07:34:42.074Z,16.00
2017-10-03T07:37:11.196Z,16.20
2017-10-03T07:39:41.944Z,16.00
2017-10-03T07:42:11.586Z,16.10
2017-10-03T07:44:39.917Z,16.30
2017-10-03T07:47:08.335Z,16.20
2017-10-03T07:49:37.610Z,16.10
2017-10-03T07:52:06.684Z,15.90
2017-10-03T07:54:35.907Z,15.90
2017-10-03T07:57:05.915Z,15.70
2017-10-03T07:59:34.251Z,16.00
2017-10-03T08:02:02.595Z,16.00
2017-10-03T08:04:31.672Z,16.00
2017-10-03T08:07:00.562Z,16.50
2017-10-03T08:09:29.930Z,16.30
2017-10-03T08:11:58.350Z,16.30
2017-10-03T08:14:27.453Z,16.10
2017-10-03T08:16:55.785Z,16.10
2017-10-03T08:19:25.000Z,16.00
2017-10-03T08:21:54.161Z,16.10
2017-10-03T08:24:23.409Z,16.20
2017-10-03T08:26:51.734Z,16.40
2017-10-03T08:29:19.997Z,16.10
2017-10-03T08:31:48.323Z,16.00
2017-10-03T08:34:16.719Z,16.00
2017-10-03T08:36:45.027Z,15.90
2017-10-03T08:39:13.311Z,16.20
2017-10-03T08:41:41.720Z,16.20
2017-10-03T08:44:11.021Z,16.00
2017-10-03T08:46:39.310Z,16.00
2017-10-03T08:49:07.618Z,16.60
2017-10-03T08:51:37.622Z,16.60
2017-10-03T08:54:06.876Z,16.60
2017-10-03T08:56:35.249Z,16.40
2017-10-03T08:59:03.783Z,16.30
2017-10-03T09:01:33.690Z,16.40
2017-10-03T09:04:02.978Z,16.70
2017-10-03T09:06:31.248Z,16.40
2017-10-03T09:08:59.671Z,16.40
2017-10-03T09:11:28.748Z,16.40
2017-10-03T09:13:57.053Z,16.60
2017-10-03T09:16:26.153Z,16.80
2017-10-03T09:18:54.432Z,16.50
2017-10-03T09:21:22.782Z,16.90
2017-10-03T09:23:51.930Z,16.70
2017-10-03T09:26:21.025Z,16.60
2017-10-03T09:28:49.288Z,16.70
2017-10-03T09:31:17.598Z,16.80
2017-10-03T09:33:46.870Z,17.10
2017-10-03T09:36:15.233Z,16.90
2017-10-03T09:38:43.550Z,16.90
2017-10-03T09:41:11.884Z,17.20
2017-10-03T09:43:40.151Z,17.20
2017-10-03T09:46:09.208Z,16.70
2017-10-03T09:48:37.611Z,16.80
2017-10-03T09:51:06.860Z,16.80
2017-10-03T09:53:35.313Z,16.70
2017-10-03T09:56:04.373Z,16.40
2017-10-03T09:58:32.674Z,16.60
2017-10-03T10:01:01.019Z,16.70
2017-10-03T10:03:31.907Z,16.40
2017-10-03T10:06:01.550Z,16.70
2017-10-03T10:08:33.518Z,16.70
2017-10-03T10:11:06.668Z,16.80
2017-10-03T10:13:36.276Z,17.00
2017-10-03T10:16:07.925Z,17.10
2017-10-03T10:18:40.899Z,17.10
2017-10-03T10:21:14.545Z,17.20
2017-10-03T10:23:46.038Z,17.20
2017-10-03T10:26:16.095Z,16.90
2017-10-03T10:28:45.365Z,17.50
2017-10-03T10:31:13.836Z,17.50
2017-10-03T10:33:42.222Z,17.40
2017-10-03T10:36:10.680Z,17.30
2017-10-03T10:38:38.956Z,17.20
2017-10-03T10:41:07.299Z,17.10
2017-10-03T10:43:35.579Z,17.40
2017-10-03T10:46:03.936Z,17.10
2017-10-03T10:48:32.284Z,17.40
2017-10-03T10:51:01.459Z,17.50
2017-10-03T10:53:29.967Z,17.50
2017-10-03T10:55:59.239Z,17.50
2017-10-03T10:58:29.733Z,17.50
2017-10-03T11:00:59.109Z,17.60
2017-10-03T11:03:27.678Z,17.20
2017-10-03T11:05:55.991Z,17.70
2017-10-03T11:08:24.794Z,17.60
2017-10-03T11:10:53.923Z,17.90
2017-10-03T11:13:22.282Z,17.90
2017-10-03T11:15:50.782Z,17.70
2017-10-03T11:18:19.136Z,17.90
2017-10-03T11:20:47.508Z,17.70
2017-10-03T11:23:27.916Z,17.70
2017-10-03T11:25:56.240Z,17.90
2017-10-03T11:28:24.620Z,17.70
2017-10-03T11:30:52.902Z,18.00
2017-10-03T11:33:21.243Z,17.80
2017-10-03T11:35:50.362Z,18.10
2017-10-03T11:38:19.620Z,17.80
2017-10-03T11:40:49.129Z,18.00
2017-10-03T11:43:20.480Z,18.00
2017-10-03T11:45:50.364Z,18.00
2017-10-03T11:48:20.324Z,18.10
2017-10-03T11:50:49.712Z,18.00
2017-10-03T11:53:18.809Z,18.10
2017-10-03T11:55:47.906Z,18.10
2017-10-03T11:58:17.092Z,17.90
2017-10-03T12:00:46.240Z,18.10
2017-10-03T12:03:14.622Z,18.40
2017-10-03T12:05:43.030Z,18.10
2017-10-03T12:08:11.447Z,17.80
2017-10-03T12:10:40.554Z,18.20
2017-10-03T12:13:09.731Z,18.20
2017-10-03T12:15:38.921Z,18.30
2017-10-03T12:18:08.245Z,18.00
2017-10-03T12:20:38.269Z,18.30
2017-10-03T12:23:06.626Z,18.00
2017-10-03T12:25:36.337Z,18.40
2017-10-03T12:28:05.468Z,18.00
2017-10-03T12:30:33.838Z,18.00
2017-10-03T12:33:03.762Z,18.10
2017-10-03T12:35:32.126Z,17.90
2017-10-03T12:38:00.453Z,18.00
2017-10-03T12:40:29.703Z,18.10
2017-10-03T12:42:58.068Z,18.10
2017-10-03T12:45:26.418Z,18.10
2017-10-03T12:47:54.922Z,17.90
2017-10-03T12:50:24.010Z,17.70
2017-10-03T12:52:52.347Z,17.60
2017-10-03T12:55:21.680Z,17.50
2017-10-03T12:57:50.839Z,17.10
2017-10-03T13:00:19.241Z,17.10
2017-10-03T13:02:47.671Z,17.10
2017-10-03T13:05:16.809Z,16.70
2017-10-03T13:07:45.336Z,16.90
2017-10-03T13:13:14.523Z,17.00
2017-10-03T13:15:42.827Z,17.30
2017-10-03T13:18:12.623Z,17.40
2017-10-03T13:20:41.729Z,17.40
2017-10-03T13:23:10.047Z,17.80
2017-10-03T13:25:38.384Z,18.00
2017-10-03T13:28:06.683Z,17.80
2017-10-03T13:30:35.780Z,18.10
2017-10-03T13:33:04.147Z,18.00
2017-10-03T13:35:33.331Z,18.10
2017-10-03T13:38:01.683Z,17.90
2017-10-03T13:40:29.995Z,18.20
2017-10-03T13:42:58.365Z,18.40
2017-10-03T13:45:26.806Z,18.20
2017-10-03T13:47:55.121Z,18.00
2017-10-03T13:50:23.532Z,18.00
2017-10-03T13:52:52.090Z,17.70
2017-10-03T13:55:22.140Z,18.00
2017-10-03T13:57:54.135Z,18.20
2017-10-03T14:00:22.551Z,18.10
2017-10-03T14:02:52.013Z,17.70
2017-10-03T14:05:21.945Z,17.70
2017-10-03T14:07:53.862Z,17.50
2017-10-03T14:10:25.210Z,17.60
2017-10-03T14:12:54.871Z,17.80
2017-10-03T14:15:23.790Z,17.70
2017-10-03T14:17:55.792Z,17.70
2017-10-03T14:20:28.754Z,17.80
2017-10-03T14:23:01.282Z,17.60
2017-10-03T14:25:34.518Z,18.10
2017-10-03T14:28:03.027Z,18.00
2017-10-03T14:30:31.313Z,17.80
2017-10-03T14:32:59.725Z,17.90
2017-10-03T14:35:29.570Z,17.90
2017-10-03T14:37:58.196Z,17.90
2017-10-03T14:40:26.579Z,17.80
2017-10-03T14:45:56.928Z,17.80
2017-10-03T14:48:25.235Z,17.80
2017-10-03T14:50:53.563Z,18.00
2017-10-03T14:53:22.036Z,17.70
2017-10-03T14:55:51.396Z,17.90
2017-10-03T14:58:20.579Z,17.70
2017-10-03T15:00:48.891Z,18.00
2017-10-03T15:03:17.970Z,17.90
2017-10-03T15:05:46.419Z,17.80
2017-10-03T15:08:14.991Z,17.80
2017-10-03T15:10:44.126Z,18.00
2017-10-03T15:13:13.260Z,18.10
2017-10-03T15:15:43.739Z,17.90
2017-10-03T15:18:12.027Z,17.70
2017-10-03T15:20:41.126Z,17.90
2017-10-03T15:23:09.477Z,17.80
2017-10-03T15:25:37.782Z,17.90
2017-10-03T15:28:07.186Z,18.00
2017-10-03T15:30:36.273Z,18.10
2017-10-03T15:33:04.739Z,18.10
2017-10-03T15:35:33.163Z,18.20
2017-10-03T15:38:01.500Z,18.00
2017-10-03T15:40:29.982Z,17.90
2017-10-03T15:42:58.382Z,17.60
2017-10-03T15:45:27.467Z,17.90
2017-10-03T15:47:55.766Z,18.10
2017-10-03T15:50:25.132Z,18.10
2017-10-03T15:52:53.418Z,17.90
2017-10-03T15:55:22.572Z,17.60
2017-10-03T15:57:50.985Z,17.80
2017-10-03T16:00:19.337Z,17.80
2017-10-03T16:02:47.665Z,17.90
2017-10-03T16:05:15.984Z,17.80
2017-10-03T16:07:44.306Z,17.90
2017-10-03T16:10:13.745Z,17.90
2017-10-03T16:12:42.386Z,17.80
2017-10-03T16:15:11.645Z,18.00
2017-10-03T16:17:40.271Z,17.80
2017-10-03T16:20:09.499Z,17.70
2017-10-03T16:22:37.949Z,17.30
2017-10-03T16:25:06.356Z,17.70
2017-10-03T16:27:35.727Z,17.60
2017-10-03T16:30:04.484Z,17.60
2017-10-03T16:32:33.825Z,17.70
2017-10-03T16:35:02.995Z,17.60
2017-10-03T16:37:32.270Z,17.90
2017-10-03T16:40:01.613Z,17.90
2017-10-03T16:42:29.951Z,17.70
2017-10-03T16:44:58.297Z,17.90
2017-10-03T16:47:26.713Z,17.60
2017-10-03T16:49:55.061Z,17.60
2017-10-03T16:52:23.617Z,17.80
2017-10-03T16:54:52.252Z,17.90
2017-10-03T16:57:21.706Z,17.80
2017-10-03T16:59:51.144Z,17.90
2017-10-03T17:02:19.553Z,17.80
2017-10-03T17:04:48.226Z,17.90
2017-10-03T17:07:17.129Z,17.70
2017-10-03T17:09:46.709Z,17.70
2017-10-03T17:12:15.513Z,17.80
2017-10-03T17:14:45.933Z,17.40
2017-10-03T17:17:15.496Z,17.40
2017-10-03T17:19:45.773Z,17.40
2017-10-03T17:22:15.970Z,17.40
2017-10-03T17:24:45.709Z,17.30
2017-10-03T17:27:17.644Z,17.50
2017-10-03T17:29:51.847Z,17.20
2017-10-03T17:32:21.224Z,17.20
2017-10-03T17:34:50.641Z,17.30
2017-10-03T17:37:20.842Z,17.00
2017-10-03T17:39:50.749Z,16.90
2017-10-03T17:42:20.909Z,17.10
2017-10-03T17:44:51.120Z,16.80
2017-10-03T17:47:20.063Z,16.90
2017-10-03T17:49:49.224Z,16.70
2017-10-03T17:52:18.854Z,16.50
2017-10-03T17:54:48.538Z,16.80
2017-10-03T17:57:20.360Z,16.70
2017-10-03T17:59:50.932Z,16.90
2017-10-03T18:02:19.622Z,16.80
2017-10-03T18:04:48.121Z,16.60
2017-10-03T18:07:17.274Z,16.50
2017-10-03T18:09:47.355Z,16.50
2017-10-03T18:12:17.375Z,16.60
2017-10-03T18:14:46.199Z,16.80
2017-10-03T18:17:16.108Z,16.40
2017-10-03T18:19:45.941Z,16.50
2017-10-03T18:22:17.888Z,16.40
2017-10-03T18:24:47.107Z,16.40
2017-10-03T18:27:16.071Z,16.40
2017-10-03T18:29:45.480Z,16.40
2017-10-03T18:32:14.511Z,16.30
2017-10-03T18:34:43.732Z,16.30
2017-10-03T18:37:12.891Z,16.20
2017-10-03T18:39:45.152Z,16.40
2017-10-03T18:42:15.439Z,16.10
2017-10-03T18:44:45.608Z,16.30
2017-10-03T18:47:17.422Z,16.20
2017-10-03T18:49:48.221Z,16.20
2017-10-03T18:52:19.211Z,16.40
2017-10-03T18:54:54.234Z,16.50
2017-10-03T18:57:24.340Z,16.40
2017-10-03T18:59:54.924Z,16.30
2017-10-03T19:02:24.109Z,16.20
2017-10-03T19:05:00.745Z,16.20
2017-10-03T19:07:30.155Z,16.20
2017-10-03T19:10:00.658Z,16.40
2017-10-03T19:12:30.645Z,16.40
2017-10-03T19:15:01.143Z,16.20
2017-10-03T19:17:32.961Z,16.10
2017-10-03T19:20:06.515Z,16.40
2017-10-03T19:22:38.898Z,16.50
2017-10-03T19:25:08.276Z,16.30
2017-10-03T19:27:38.181Z,16.50
2017-10-03T19:30:08.061Z,16.30
2017-10-03T19:32:37.221Z,16.50
2017-10-03T19:35:09.388Z,16.40
2017-10-03T19:37:39.261Z,16.20
2017-10-03T19:40:10.969Z,16.30
2017-10-03T19:42:39.832Z,16.30
2017-10-03T19:45:10.297Z,16.00
2017-10-03T19:47:39.909Z,16.30
2017-10-03T19:50:10.234Z,16.10
2017-10-03T19:52:41.438Z,16.10
2017-10-03T19:55:11.695Z,16.10
2017-10-03T19:57:42.107Z,16.10
2017-10-03T20:00:11.409Z,16.00
2017-10-03T20:02:42.212Z,16.10
2017-10-03T20:05:12.411Z,16.40
2017-10-03T20:07:43.766Z,16.20
2017-10-03T20:10:14.683Z,16.20
2017-10-03T20:12:44.911Z,16.10
2017-10-03T20:15:17.145Z,16.00
2017-10-03T20:17:45.930Z,16.10
2017-10-03T20:20:15.993Z,16.00
2017-10-03T20:22:46.918Z,16.20
2017-10-03T20:25:15.472Z,16.20
2017-10-03T20:27:45.830Z,16.10
2017-10-03T20:30:15.890Z,16.30
2017-10-03T20:32:49.088Z,16.40
2017-10-03T20:35:17.427Z,16.10
2017-10-03T20:37:46.557Z,16.30
2017-10-03T20:40:15.789Z,16.10
2017-10-03T20:42:44.521Z,16.20
2017-10-03T20:45:12.922Z,16.30
2017-10-03T20:47:42.284Z,16.30
2017-10-03T20:50:11.222Z,16.10
2017-10-03T20:52:40.393Z,15.90
2017-10-03T20:55:08.686Z,16.00
2017-10-03T20:57:37.966Z,15.90
2017-10-03T21:00:06.256Z,16.00
2017-10-03T21:02:34.652Z,15.90
2017-10-03T21:05:04.121Z,15.90
2017-10-03T21:07:32.478Z,15.70
2017-10-03T21:10:00.851Z,15.60
2017-10-03T21:12:29.228Z,15.90
2017-10-03T21:14:58.340Z,15.60
2017-10-03T21:17:26.618Z,15.60
2017-10-03T21:19:54.920Z,15.90
2017-10-03T21:22:24.733Z,15.80
2017-10-03T21:24:53.134Z,15.60
2017-10-03T21:27:31.923Z,15.90
2017-10-03T21:30:01.696Z,15.80
2017-10-03T21:32:30.007Z,15.50
2017-10-03T21:34:58.297Z,15.70
2017-10-03T21:37:26.714Z,15.60
2017-10-03T21:39:55.801Z,15.50
2017-10-03T21:42:45.912Z,15.20
2017-10-03T21:45:15.956Z,15.50
2017-10-03T21:47:44.244Z,15.50
2017-10-03T21:50:12.554Z,15.60
2017-10-03T21:52:47.685Z,15.40
2017-10-03T21:55:15.969Z,15.40
2017-10-03T21:57:44.245Z,15.50
2017-10-03T22:00:13.359Z,15.50
2017-10-03T22:02:41.701Z,15.50
2017-10-03T22:05:09.994Z,15.60
2017-10-03T22:07:38.251Z,15.50
2017-10-03T22:10:06.738Z,15.40
2017-10-03T22:12:35.941Z,15.70
2017-10-03T22:15:04.199Z,15.40
2017-10-03T22:17:33.314Z,15.30
2017-10-03T22:20:01.629Z,15.50
2017-10-03T22:22:29.911Z,15.40
2017-10-03T22:24:58.197Z,15.40
2017-10-03T22:27:27.993Z,15.60
2017-10-03T22:29:56.346Z,15.60
2017-10-03T22:32:24.613Z,15.50
2017-10-03T22:34:52.961Z,15.60
2017-10-03T22:37:21.246Z,15.70
2017-10-03T22:39:49.494Z,15.60
2017-10-03T22:42:18.885Z,15.50
2017-10-03T22:44:48.011Z,15.80
2017-10-03T22:47:16.317Z,15.60
2017-10-03T22:49:46.095Z,15.60
2017-10-03T22:52:20.152Z,15.50
2017-10-03T22:54:49.676Z,15.50
2017-10-03T22:57:17.979Z,15.50
2017-10-03T22:59:47.049Z,15.60
2017-10-03T23:02:15.324Z,15.70
2017-10-03T23:04:43.628Z,15.50
2017-10-03T23:07:11.900Z,15.50
2017-10-03T23:09:40.157Z,15.80
2017-10-03T23:12:14.255Z,15.20
2017-10-03T23:14:43.468Z,15.60
2017-10-03T23:17:12.511Z,15.30
2017-10-03T23:19:40.755Z,15.60
2017-10-03T23:22:09.027Z,15.50
2017-10-03T23:24:37.334Z,15.30
2017-10-03T23:27:05.582Z,15.30
2017-10-03T23:29:33.908Z,15.20
2017-10-03T23:32:02.158Z,15.60
2017-10-03T23:34:31.048Z,15.10
2017-10-03T23:36:59.317Z,15.50
2017-10-03T23:39:27.646Z,15.20
2017-10-03T23:41:56.673Z,15.40
2017-10-03T23:44:24.986Z,15.10
2017-10-03T23:46:54.243Z,15.20
2017-10-03T23:49:24.230Z,15.20
2017-10-03T23:51:54.253Z,15.00
2017-10-03T23:54:24.160Z,15.40
2017-10-03T23:56:53.448Z,15.50
2017-10-03T23:59:24.394Z,15.10
